Loose Creek, Missouri
Current Conditions -  °F | °C
As of 5:53 AM on Saturday 20 Dec 2014 (Local Time) from KJEF Reporting Station
Haze Haze  
Wind Chill: 37°   Ceiling: 700
Heat Index: 37°   Visibility: 6mi
Dew Point: 34°   Wind: 3mph
Humidity: 89%   Direction: 120°ESE
Pressure: 30.23"   Gusts: NA
Location:  38.51°N, 91.96°W
Report Text: KJEF 201153Z AUTO 12003KT 6SM BR OVC007 03/01 A3023 RMK AO2 SLP231 T00280011 10028 20022 55003
Loading
Personal Weather Stations






























Interactive Weather Map New forecast layout! Learn more

10-Day Weather Forecast

Advertisements
Track Severe Weather on mobile